sensor_id;sensor_type;location;lat;lon;timestamp;pressure;altitude;pressure_sealevel;temperature;humidity
13235;BME280;6683;48.506;9.050;2023-03-18T00:00:59;97695.25;;;11.26;58.50
13235;BME280;6683;48.506;9.050;2023-03-18T00:04:04;97693.88;;;11.24;58.59
13235;BME280;6683;48.506;9.050;2023-03-18T00:07:08;97689.59;;;11.23;58.42
13235;BME280;6683;48.506;9.050;2023-03-18T00:10:11;97700.16;;;11.23;58.56
13235;BME280;6683;48.506;9.050;2023-03-18T00:13:13;97694.88;;;11.23;58.83
13235;BME280;6683;48.506;9.050;2023-03-18T00:16:16;97695.06;;;11.21;58.74
13235;BME280;6683;48.506;9.050;2023-03-18T00:19:20;97694.25;;;11.21;58.61
13235;BME280;6683;48.506;9.050;2023-03-18T00:22:25;97698.53;;;11.22;58.90
13235;BME280;6683;48.506;9.050;2023-03-18T00:25:28;97704.44;;;11.24;59.15
13235;BME280;6683;48.506;9.050;2023-03-18T00:28:31;97705.44;;;11.23;59.00
13235;BME280;6683;48.506;9.050;2023-03-18T00:31:34;97702.78;;;11.23;59.10
13235;BME280;6683;48.506;9.050;2023-03-18T00:34:38;97697.50;;;11.23;58.91
13235;BME280;6683;48.506;9.050;2023-03-18T00:37:41;97709.91;;;11.22;59.34
13235;BME280;6683;48.506;9.050;2023-03-18T00:40:45;97710.09;;;11.21;59.26
13235;BME280;6683;48.506;9.050;2023-03-18T00:43:54;97709.28;;;11.20;59.19
13235;BME280;6683;48.506;9.050;2023-03-18T00:46:57;97709.28;;;11.20;59.15
13235;BME280;6683;48.506;9.050;2023-03-18T00:49:59;97713.34;;;11.16;59.16
13235;BME280;6683;48.506;9.050;2023-03-18T00:53:04;97723.50;;;11.13;59.05
13235;BME280;6683;48.506;9.050;2023-03-18T00:56:06;97718.44;;;11.05;59.00
13235;BME280;6683;48.506;9.050;2023-03-18T00:59:09;97729.59;;;11.00;59.17
13235;BME280;6683;48.506;9.050;2023-03-18T01:02:11;97742.38;;;10.97;59.13
13235;BME280;6683;48.506;9.050;2023-03-18T01:05:14;97743.19;;;10.91;59.18
13235;BME280;6683;48.506;9.050;2023-03-18T01:08:18;97737.28;;;10.89;59.72
13235;BME280;6683;48.506;9.050;2023-03-18T01:11:22;97732.00;;;10.89;59.55
13235;BME280;6683;48.506;9.050;2023-03-18T01:14:24;97733.84;;;10.88;59.69
13235;BME280;6683;48.506;9.050;2023-03-18T01:17:27;97733.22;;;10.86;59.83
13235;BME280;6683;48.506;9.050;2023-03-18T01:20:30;97731.56;;;10.85;60.02
13235;BME280;6683;48.506;9.050;2023-03-18T01:23:34;97725.69;;;10.83;59.80
13235;BME280;6683;48.506;9.050;2023-03-18T01:26:36;97724.84;;;10.83;60.27
13235;BME280;6683;48.506;9.050;2023-03-18T01:29:39;97723.25;;;10.82;59.73
13235;BME280;6683;48.506;9.050;2023-03-18T01:32:41;97721.44;;;10.82;60.22
13235;BME280;6683;48.506;9.050;2023-03-18T01:35:45;97726.72;;;10.82;60.18
13235;BME280;6683;48.506;9.050;2023-03-18T01:38:50;97712.28;;;10.85;60.02
13235;BME280;6683;48.506;9.050;2023-03-18T01:41:53;97707.44;;;10.88;60.20
13235;BME280;6683;48.506;9.050;2023-03-18T01:45:15;97717.38;;;10.86;60.29
13235;BME280;6683;48.506;9.050;2023-03-18T01:48:22;97733.41;;;10.85;60.28
13235;BME280;6683;48.506;9.050;2023-03-18T01:51:26;97724.84;;;10.83;60.11
13235;BME280;6683;48.506;9.050;2023-03-18T01:54:37;97733.00;;;10.81;60.49
13235;BME280;6683;48.506;9.050;2023-03-18T01:57:42;97727.09;;;10.79;60.58
13235;BME280;6683;48.506;9.050;2023-03-18T02:00:50;97725.66;;;10.77;60.65
13235;BME280;6683;48.506;9.050;2023-03-18T02:03:54;97712.47;;;10.77;60.36
13235;BME280;6683;48.506;9.050;2023-03-18T02:06:57;97721.41;;;10.76;60.73
13235;BME280;6683;48.506;9.050;2023-03-18T02:10:08;97725.25;;;10.73;60.93
13235;BME280;6683;48.506;9.050;2023-03-18T02:13:14;97726.47;;;10.71;61.14
13235;BME280;6683;48.506;9.050;2023-03-18T02:16:20;97722.78;;;10.65;60.70
13235;BME280;6683;48.506;9.050;2023-03-18T02:19:39;97717.50;;;10.59;60.59
13235;BME280;6683;48.506;9.050;2023-03-18T02:22:51;97733.50;;;10.51;60.73
13235;BME280;6683;48.506;9.050;2023-03-18T02:26:02;97733.06;;;10.40;60.71
13235;BME280;6683;48.506;9.050;2023-03-18T02:29:11;97725.72;;;10.36;60.75
13235;BME280;6683;48.506;9.050;2023-03-18T02:32:16;97735.03;;;10.32;61.07
13235;BME280;6683;48.506;9.050;2023-03-18T02:35:19;97735.00;;;10.25;60.80
13235;BME280;6683;48.506;9.050;2023-03-18T02:38:22;97738.22;;;10.21;60.84
13235;BME280;6683;48.506;9.050;2023-03-18T02:41:27;97731.50;;;10.18;61.32
13235;BME280;6683;48.506;9.050;2023-03-18T02:44:39;97713.47;;;10.15;61.54
13235;BME280;6683;48.506;9.050;2023-03-18T02:47:44;97734.34;;;10.17;61.18
13235;BME280;6683;48.506;9.050;2023-03-18T02:50:48;97737.81;;;10.17;61.27
13235;BME280;6683;48.506;9.050;2023-03-18T02:53:52;97718.31;;;10.18;61.64
13235;BME280;6683;48.506;9.050;2023-03-18T02:56:57;97719.56;;;10.22;61.27
13235;BME280;6683;48.506;9.050;2023-03-18T03:00:01;97724.47;;;10.25;61.66
13235;BME280;6683;48.506;9.050;2023-03-18T03:03:05;97725.91;;;10.28;61.83
13235;BME280;6683;48.506;9.050;2023-03-18T03:06:08;97727.50;;;10.29;61.52
13235;BME280;6683;48.506;9.050;2023-03-18T03:09:13;97731.78;;;10.30;61.75
13235;BME280;6683;48.506;9.050;2023-03-18T03:12:16;97735.03;;;10.32;61.85
13235;BME280;6683;48.506;9.050;2023-03-18T03:15:20;97728.75;;;10.33;61.76
13235;BME280;6683;48.506;9.050;2023-03-18T03:18:23;97730.38;;;10.34;62.02
13235;BME280;6683;48.506;9.050;2023-03-18T03:21:26;97746.00;;;10.35;61.98
13235;BME280;6683;48.506;9.050;2023-03-18T03:24:29;97735.66;;;10.34;61.99
13235;BME280;6683;48.506;9.050;2023-03-18T03:27:31;97741.31;;;10.31;61.78
13235;BME280;6683;48.506;9.050;2023-03-18T03:30:35;97750.00;;;10.25;61.56
13235;BME280;6683;48.506;9.050;2023-03-18T03:33:38;97756.66;;;10.14;61.33
13235;BME280;6683;48.506;9.050;2023-03-18T03:36:41;97756.16;;;10.04;61.33
13235;BME280;6683;48.506;9.050;2023-03-18T03:39:44;97750.84;;;9.98;61.75
13235;BME280;6683;48.506;9.050;2023-03-18T03:42:47;97759.31;;;9.93;61.98
13235;BME280;6683;48.506;9.050;2023-03-18T03:45:51;97765.97;;;9.89;61.74
13235;BME280;6683;48.506;9.050;2023-03-18T03:48:53;97758.28;;;9.88;61.76
13235;BME280;6683;48.506;9.050;2023-03-18T03:51:56;97756.00;;;9.85;62.21
13235;BME280;6683;48.506;9.050;2023-03-18T03:54:58;97749.94;;;9.84;62.29
13235;BME280;6683;48.506;9.050;2023-03-18T03:58:01;97759.03;;;9.82;61.85
13235;BME280;6683;48.506;9.050;2023-03-18T04:01:06;97756.34;;;9.75;61.83
13235;BME280;6683;48.506;9.050;2023-03-18T04:04:08;97752.47;;;9.71;62.26
13235;BME280;6683;48.506;9.050;2023-03-18T04:07:11;97747.56;;;9.68;62.24
13235;BME280;6683;48.506;9.050;2023-03-18T04:10:17;97753.25;;;9.65;62.45
13235;BME280;6683;48.506;9.050;2023-03-18T04:13:21;97749.16;;;9.62;62.09
13235;BME280;6683;48.506;9.050;2023-03-18T04:16:25;97758.47;;;9.58;62.42
13235;BME280;6683;48.506;9.050;2023-03-18T04:19:28;97755.41;;;9.55;62.46
13235;BME280;6683;48.506;9.050;2023-03-18T04:22:31;97755.56;;;9.53;62.44
13235;BME280;6683;48.506;9.050;2023-03-18T04:25:33;97759.22;;;9.52;62.65
13235;BME280;6683;48.506;9.050;2023-03-18T04:28:36;97761.03;;;9.52;62.35
13235;BME280;6683;48.506;9.050;2023-03-18T04:31:40;97752.50;;;9.50;62.39
13235;BME280;6683;48.506;9.050;2023-03-18T04:34:43;97752.91;;;9.47;62.67
13235;BME280;6683;48.506;9.050;2023-03-18T04:37:46;97763.81;;;9.44;62.34
13235;BME280;6683;48.506;9.050;2023-03-18T04:40:48;97761.53;;;9.41;62.39
13235;BME280;6683;48.506;9.050;2023-03-18T04:43:51;97762.75;;;9.38;62.31
13235;BME280;6683;48.506;9.050;2023-03-18T04:46:54;97763.94;;;9.36;62.77
13235;BME280;6683;48.506;9.050;2023-03-18T04:49:57;97771.22;;;9.34;62.58
13235;BME280;6683;48.506;9.050;2023-03-18T04:52:59;97765.53;;;9.30;62.61
13235;BME280;6683;48.506;9.050;2023-03-18T04:56:04;97772.34;;;9.25;62.46
13235;BME280;6683;48.506;9.050;2023-03-18T04:59:06;97771.84;;;9.15;62.34
13235;BME280;6683;48.506;9.050;2023-03-18T05:02:10;97774.97;;;9.04;62.36
13235;BME280;6683;48.506;9.050;2023-03-18T05:05:13;97768.84;;;8.97;62.77
13235;BME280;6683;48.506;9.050;2023-03-18T05:08:16;97769.75;;;8.89;62.72
13235;BME280;6683;48.506;9.050;2023-03-18T05:11:19;97770.69;;;8.81;62.62
13235;BME280;6683;48.506;9.050;2023-03-18T05:14:22;97768.16;;;8.73;62.50
13235;BME280;6683;48.506;9.050;2023-03-18T05:17:25;97774.16;;;8.67;62.58
13235;BME280;6683;48.506;9.050;2023-03-18T05:20:28;97769.66;;;8.61;62.73
13235;BME280;6683;48.506;9.050;2023-03-18T05:23:31;97775.63;;;8.55;62.62
13235;BME280;6683;48.506;9.050;2023-03-18T05:26:34;97779.38;;;8.46;62.68
13235;BME280;6683;48.506;9.050;2023-03-18T05:29:38;97776.22;;;8.36;62.55
13235;BME280;6683;48.506;9.050;2023-03-18T05:32:42;97781.53;;;8.28;62.59
13235;BME280;6683;48.506;9.050;2023-03-18T05:35:45;97781.25;;;8.23;62.90
13235;BME280;6683;48.506;9.050;2023-03-18T05:38:48;97778.34;;;8.18;62.99
13235;BME280;6683;48.506;9.050;2023-03-18T05:41:50;97783.16;;;8.15;62.92
13235;BME280;6683;48.506;9.050;2023-03-18T05:44:52;97790.41;;;8.13;63.11
13235;BME280;6683;48.506;9.050;2023-03-18T05:47:58;97790.13;;;8.07;63.27
13235;BME280;6683;48.506;9.050;2023-03-18T05:51:01;97794.75;;;8.05;63.08
13235;BME280;6683;48.506;9.050;2023-03-18T05:54:04;97782.31;;;7.99;63.07
13235;BME280;6683;48.506;9.050;2023-03-18T05:57:07;97791.75;;;7.94;63.18
13235;BME280;6683;48.506;9.050;2023-03-18T06:00:11;97788.19;;;7.87;63.15
13235;BME280;6683;48.506;9.050;2023-03-18T06:03:16;97788.91;;;7.81;62.94
13235;BME280;6683;48.506;9.050;2023-03-18T06:06:19;97796.53;;;7.76;62.98
13235;BME280;6683;48.506;9.050;2023-03-18T06:09:22;97792.53;;;7.65;62.93
13235;BME280;6683;48.506;9.050;2023-03-18T06:12:25;97787.50;;;7.56;63.14
13235;BME280;6683;48.506;9.050;2023-03-18T06:15:28;97797.88;;;7.49;63.02
13235;BME280;6683;48.506;9.050;2023-03-18T06:18:33;97804.69;;;7.44;63.10
13235;BME280;6683;48.506;9.050;2023-03-18T06:21:35;97806.03;;;7.40;63.07
13235;BME280;6683;48.506;9.050;2023-03-18T06:24:38;97810.44;;;7.39;63.39
13235;BME280;6683;48.506;9.050;2023-03-18T06:27:40;97811.91;;;7.42;63.63
13235;BME280;6683;48.506;9.050;2023-03-18T06:30:42;97817.81;;;7.44;63.39
13235;BME280;6683;48.506;9.050;2023-03-18T06:33:46;97816.00;;;7.44;63.50
13235;BME280;6683;48.506;9.050;2023-03-18T06:36:49;97823.50;;;7.47;63.68
13235;BME280;6683;48.506;9.050;2023-03-18T06:39:52;97819.72;;;7.50;63.70
13235;BME280;6683;48.506;9.050;2023-03-18T06:42:54;97823.44;;;7.55;63.92
13235;BME280;6683;48.506;9.050;2023-03-18T06:45:57;97825.41;;;7.61;63.99
13235;BME280;6683;48.506;9.050;2023-03-18T06:49:01;97823.34;;;7.71;64.12
13235;BME280;6683;48.506;9.050;2023-03-18T06:52:04;97822.44;;;7.79;64.13
13235;BME280;6683;48.506;9.050;2023-03-18T06:55:08;97819.09;;;7.85;64.14
13235;BME280;6683;48.506;9.050;2023-03-18T06:58:11;97821.28;;;7.96;64.42
13235;BME280;6683;48.506;9.050;2023-03-18T07:01:13;97822.41;;;8.16;64.58
13235;BME280;6683;48.506;9.050;2023-03-18T07:04:17;97821.06;;;8.35;64.59
13235;BME280;6683;48.506;9.050;2023-03-18T07:07:20;97816.91;;;8.55;64.96
13235;BME280;6683;48.506;9.050;2023-03-18T07:10:27;97814.16;;;8.77;64.86
13235;BME280;6683;48.506;9.050;2023-03-18T07:13:30;97814.09;;;9.07;64.83
13235;BME280;6683;48.506;9.050;2023-03-18T07:16:34;97818.25;;;9.37;65.04
13235;BME280;6683;48.506;9.050;2023-03-18T07:19:38;97822.63;;;9.72;64.80
13235;BME280;6683;48.506;9.050;2023-03-18T07:22:41;97814.41;;;10.09;65.00
13235;BME280;6683;48.506;9.050;2023-03-18T07:25:45;97815.69;;;10.48;64.64
13235;BME280;6683;48.506;9.050;2023-03-18T07:28:48;97825.66;;;10.93;65.00
13235;BME280;6683;48.506;9.050;2023-03-18T07:31:51;97826.19;;;11.49;64.54
13235;BME280;6683;48.506;9.050;2023-03-18T07:34:55;97828.09;;;12.00;63.84
13235;BME280;6683;48.506;9.050;2023-03-18T07:37:59;97826.00;;;12.48;63.35
13235;BME280;6683;48.506;9.050;2023-03-18T07:41:02;97819.75;;;12.87;63.06
13235;BME280;6683;48.506;9.050;2023-03-18T07:44:05;97827.38;;;13.21;62.62
13235;BME280;6683;48.506;9.050;2023-03-18T07:47:08;97824.16;;;13.50;62.02
13235;BME280;6683;48.506;9.050;2023-03-18T07:50:12;97820.97;;;13.67;61.79
13235;BME280;6683;48.506;9.050;2023-03-18T07:53:15;97819.22;;;13.85;61.48
13235;BME280;6683;48.506;9.050;2023-03-18T07:56:17;97825.22;;;13.99;61.17
13235;BME280;6683;48.506;9.050;2023-03-18T07:59:20;97826.97;;;14.11;61.02
13235;BME280;6683;48.506;9.050;2023-03-18T08:02:23;97828.69;;;14.24;60.65
13235;BME280;6683;48.506;9.050;2023-03-18T08:05:28;97817.41;;;14.35;60.51
13235;BME280;6683;48.506;9.050;2023-03-18T08:08:31;97811.19;;;14.41;59.89
13235;BME280;6683;48.506;9.050;2023-03-18T08:11:33;97815.09;;;14.38;59.33
13235;BME280;6683;48.506;9.050;2023-03-18T08:14:36;97813.09;;;14.34;59.15
13235;BME280;6683;48.506;9.050;2023-03-18T08:17:39;97817.59;;;14.33;59.05
13235;BME280;6683;48.506;9.050;2023-03-18T08:20:43;97817.59;;;14.33;58.71
13235;BME280;6683;48.506;9.050;2023-03-18T08:23:46;97824.75;;;14.33;58.72
13235;BME280;6683;48.506;9.050;2023-03-18T08:26:48;97823.72;;;14.34;58.65
13235;BME280;6683;48.506;9.050;2023-03-18T08:29:50;97811.63;;;14.38;58.38
13235;BME280;6683;48.506;9.050;2023-03-18T08:32:53;97812.75;;;14.49;58.52
13235;BME280;6683;48.506;9.050;2023-03-18T08:35:57;97814.44;;;14.61;58.92
13235;BME280;6683;48.506;9.050;2023-03-18T08:39:00;97805.16;;;14.88;58.86
13235;BME280;6683;48.506;9.050;2023-03-18T08:42:03;97811.31;;;15.18;58.78
13235;BME280;6683;48.506;9.050;2023-03-18T08:45:07;97813.66;;;15.56;58.72
13235;BME280;6683;48.506;9.050;2023-03-18T08:48:10;97806.13;;;16.06;58.42
13235;BME280;6683;48.506;9.050;2023-03-18T08:51:14;97801.06;;;16.62;57.74
13235;BME280;6683;48.506;9.050;2023-03-18T08:54:17;97808.19;;;17.25;56.77
13235;BME280;6683;48.506;9.050;2023-03-18T08:57:21;97801.91;;;17.92;55.76
13235;BME280;6683;48.506;9.050;2023-03-18T09:00:23;97797.34;;;18.59;54.44
13235;BME280;6683;48.506;9.050;2023-03-18T09:03:26;97794.06;;;19.17;53.54
13235;BME280;6683;48.506;9.050;2023-03-18T09:06:30;97778.25;;;19.96;52.46
13235;BME280;6683;48.506;9.050;2023-03-18T09:09:33;97777.38;;;20.63;51.08
13235;BME280;6683;48.506;9.050;2023-03-18T09:12:35;97773.94;;;21.45;50.46
13235;BME280;6683;48.506;9.050;2023-03-18T09:15:37;97761.63;;;22.30;48.54
13235;BME280;6683;48.506;9.050;2023-03-18T09:18:40;97762.53;;;22.94;47.76
13235;BME280;6683;48.506;9.050;2023-03-18T09:21:44;97760.19;;;23.75;46.71
13235;BME280;6683;48.506;9.050;2023-03-18T09:24:46;97748.91;;;24.59;45.38
13235;BME280;6683;48.506;9.050;2023-03-18T09:27:49;97747.69;;;25.17;44.24
13235;BME280;6683;48.506;9.050;2023-03-18T09:30:51;97751.78;;;25.71;43.31
13235;BME280;6683;48.506;9.050;2023-03-18T09:33:55;97741.81;;;26.49;42.46
13235;BME280;6683;48.506;9.050;2023-03-18T09:36:59;97744.09;;;27.10;41.61
13235;BME280;6683;48.506;9.050;2023-03-18T09:40:01;97740.25;;;27.74;40.83
13235;BME280;6683;48.506;9.050;2023-03-18T09:43:19;97736.75;;;28.18;39.92
13235;BME280;6683;48.506;9.050;2023-03-18T09:46:36;97727.47;;;28.50;39.18
13235;BME280;6683;48.506;9.050;2023-03-18T09:50:16;97722.91;;;28.59;38.56
13235;BME280;6683;48.506;9.050;2023-03-18T09:53:27;97720.09;;;28.72;38.43
13235;BME280;6683;48.506;9.050;2023-03-18T09:56:34;97720.63;;;28.91;37.71
13235;BME280;6683;48.506;9.050;2023-03-18T09:59:40;97722.22;;;29.01;37.49
13235;BME280;6683;48.506;9.050;2023-03-18T10:02:49;97714.78;;;29.23;36.68
13235;BME280;6683;48.506;9.050;2023-03-18T10:05:57;97709.84;;;29.43;35.21
13235;BME280;6683;48.506;9.050;2023-03-18T10:09:12;97706.31;;;29.34;35.00
13235;BME280;6683;48.506;9.050;2023-03-18T10:12:23;97708.53;;;29.32;34.27
13235;BME280;6683;48.506;9.050;2023-03-18T10:15:35;97704.06;;;29.53;33.86
13235;BME280;6683;48.506;9.050;2023-03-18T10:18:40;97707.44;;;29.75;33.14
13235;BME280;6683;48.506;9.050;2023-03-18T10:21:51;97706.81;;;29.87;32.73
13235;BME280;6683;48.506;9.050;2023-03-18T10:25:04;97709.31;;;30.00;32.25
13235;BME280;6683;48.506;9.050;2023-03-18T10:28:33;97697.13;;;30.07;32.16
13235;BME280;6683;48.506;9.050;2023-03-18T10:31:53;97698.72;;;30.16;31.88
13235;BME280;6683;48.506;9.050;2023-03-18T10:35:13;97698.09;;;30.11;32.06
13235;BME280;6683;48.506;9.050;2023-03-18T10:38:23;97702.88;;;30.22;31.58
13235;BME280;6683;48.506;9.050;2023-03-18T10:41:32;97694.53;;;30.19;31.04
13235;BME280;6683;48.506;9.050;2023-03-18T10:44:39;97698.53;;;30.21;30.93
13235;BME280;6683;48.506;9.050;2023-03-18T10:47:49;97688.78;;;30.20;30.63
13235;BME280;6683;48.506;9.050;2023-03-18T10:51:04;97683.97;;;30.17;30.83
13235;BME280;6683;48.506;9.050;2023-03-18T10:54:14;97684.28;;;30.33;30.66
13235;BME280;6683;48.506;9.050;2023-03-18T10:57:21;97678.63;;;30.75;30.35
13235;BME280;6683;48.506;9.050;2023-03-18T11:00:27;97684.81;;;31.34;29.67
13235;BME280;6683;48.506;9.050;2023-03-18T11:03:33;97678.50;;;31.63;29.36
13235;BME280;6683;48.506;9.050;2023-03-18T11:06:43;97678.22;;;32.09;29.38
13235;BME280;6683;48.506;9.050;2023-03-18T11:09:47;97668.25;;;32.86;29.47
13235;BME280;6683;48.506;9.050;2023-03-18T11:12:56;97659.31;;;33.37;28.14
13235;BME280;6683;48.506;9.050;2023-03-18T11:16:00;97658.72;;;33.71;27.27
13235;BME280;6683;48.506;9.050;2023-03-18T11:19:30;97658.25;;;33.97;26.86
13235;BME280;6683;48.506;9.050;2023-03-18T11:22:33;97650.16;;;34.32;26.84
13235;BME280;6683;48.506;9.050;2023-03-18T11:25:38;97645.22;;;34.53;26.35
13235;BME280;6683;48.506;9.050;2023-03-18T11:28:41;97639.75;;;34.69;25.96
13235;BME280;6683;48.506;9.050;2023-03-18T11:31:49;97642.38;;;35.15;25.12
13235;BME280;6683;48.506;9.050;2023-03-18T11:34:57;97645.50;;;35.33;24.46
13235;BME280;6683;48.506;9.050;2023-03-18T11:38:02;97623.53;;;35.33;24.32
13235;BME280;6683;48.506;9.050;2023-03-18T11:41:12;97623.09;;;35.12;24.16
13235;BME280;6683;48.506;9.050;2023-03-18T11:44:23;97621.59;;;35.14;23.08
13235;BME280;6683;48.506;9.050;2023-03-18T11:47:28;97624.03;;;35.00;23.46
13235;BME280;6683;48.506;9.050;2023-03-18T11:50:41;97624.16;;;35.07;22.98
13235;BME280;6683;48.506;9.050;2023-03-18T11:54:02;97622.34;;;34.80;22.86
13235;BME280;6683;48.506;9.050;2023-03-18T11:57:14;97606.13;;;34.91;22.94
13235;BME280;6683;48.506;9.050;2023-03-18T12:00:28;97602.91;;;34.85;22.50
13235;BME280;6683;48.506;9.050;2023-03-18T12:04:03;97595.66;;;34.77;22.96
13235;BME280;6683;48.506;9.050;2023-03-18T12:07:26;97599.66;;;34.80;22.59
13235;BME280;6683;48.506;9.050;2023-03-18T12:10:37;97587.78;;;34.76;22.69
13235;BME280;6683;48.506;9.050;2023-03-18T12:13:54;97584.59;;;34.74;22.21
13235;BME280;6683;48.506;9.050;2023-03-18T12:17:16;97578.97;;;34.67;21.64
13235;BME280;6683;48.506;9.050;2023-03-18T12:20:44;97571.13;;;34.34;21.86
13235;BME280;6683;48.506;9.050;2023-03-18T12:24:02;97570.47;;;34.06;21.91
13235;BME280;6683;48.506;9.050;2023-03-18T12:27:14;97560.69;;;33.93;22.36
13235;BME280;6683;48.506;9.050;2023-03-18T12:30:41;97555.75;;;33.82;21.58
13235;BME280;6683;48.506;9.050;2023-03-18T12:33:54;97554.78;;;33.75;21.67
13235;BME280;6683;48.506;9.050;2023-03-18T12:37:11;97559.38;;;33.71;21.33
13235;BME280;6683;48.506;9.050;2023-03-18T12:40:30;97554.00;;;32.91;22.17
13235;BME280;6683;48.506;9.050;2023-03-18T12:43:54;97549.09;;;31.52;22.85
13235;BME280;6683;48.506;9.050;2023-03-18T12:47:06;97554.56;;;30.20;24.24
13235;BME280;6683;48.506;9.050;2023-03-18T12:50:17;97545.91;;;29.16;25.04
13235;BME280;6683;48.506;9.050;2023-03-18T12:53:26;97547.28;;;28.37;25.77
13235;BME280;6683;48.506;9.050;2023-03-18T12:56:37;97545.41;;;27.67;26.16
13235;BME280;6683;48.506;9.050;2023-03-18T12:59:46;97543.69;;;26.97;26.47
13235;BME280;6683;48.506;9.050;2023-03-18T13:02:58;97545.84;;;26.37;26.59
13235;BME280;6683;48.506;9.050;2023-03-18T13:06:10;97545.72;;;25.87;27.08
13235;BME280;6683;48.506;9.050;2023-03-18T13:09:24;97542.59;;;25.53;27.37
13235;BME280;6683;48.506;9.050;2023-03-18T13:12:31;97539.81;;;25.26;27.98
13235;BME280;6683;48.506;9.050;2023-03-18T13:15:40;97538.03;;;25.03;28.10
13235;BME280;6683;48.506;9.050;2023-03-18T13:18:49;97545.38;;;24.84;28.61
13235;BME280;6683;48.506;9.050;2023-03-18T13:22:06;97546.38;;;24.69;28.55
13235;BME280;6683;48.506;9.050;2023-03-18T13:25:20;97549.28;;;24.54;28.89
13235;BME280;6683;48.506;9.050;2023-03-18T13:28:56;97538.94;;;24.42;29.19
13235;BME280;6683;48.506;9.050;2023-03-18T13:32:18;97536.88;;;24.34;29.41
13235;BME280;6683;48.506;9.050;2023-03-18T13:35:50;97537.44;;;24.31;29.61
13235;BME280;6683;48.506;9.050;2023-03-18T13:39:28;97532.91;;;24.27;29.99
13235;BME280;6683;48.506;9.050;2023-03-18T13:42:35;97537.81;;;24.25;29.81
13235;BME280;6683;48.506;9.050;2023-03-18T13:45:43;97534.38;;;24.19;29.81
13235;BME280;6683;48.506;9.050;2023-03-18T13:48:46;97541.16;;;24.17;29.87
13235;BME280;6683;48.506;9.050;2023-03-18T13:51:53;97532.91;;;24.08;30.27
13235;BME280;6683;48.506;9.050;2023-03-18T13:55:03;97532.91;;;24.03;29.80
13235;BME280;6683;48.506;9.050;2023-03-18T13:58:20;97533.00;;;23.98;30.22
13235;BME280;6683;48.506;9.050;2023-03-18T14:01:31;97524.97;;;23.93;30.24
13235;BME280;6683;48.506;9.050;2023-03-18T14:04:45;97529.06;;;23.91;30.65
13235;BME280;6683;48.506;9.050;2023-03-18T14:07:49;97520.66;;;23.92;30.48
13235;BME280;6683;48.506;9.050;2023-03-18T14:11:43;97526.91;;;23.88;30.70
13235;BME280;6683;48.506;9.050;2023-03-18T14:14:56;97526.69;;;23.84;30.98
13235;BME280;6683;48.506;9.050;2023-03-18T14:18:03;97531.06;;;23.80;30.58
13235;BME280;6683;48.506;9.050;2023-03-18T14:21:23;97525.19;;;23.73;30.72
13235;BME280;6683;48.506;9.050;2023-03-18T14:24:27;97515.28;;;23.68;31.16
13235;BME280;6683;48.506;9.050;2023-03-18T14:27:30;97517.75;;;23.65;30.71
13235;BME280;6683;48.506;9.050;2023-03-18T14:30:57;97525.31;;;23.63;30.77
13235;BME280;6683;48.506;9.050;2023-03-18T14:34:31;97524.56;;;23.57;30.87
13235;BME280;6683;48.506;9.050;2023-03-18T14:37:55;97516.31;;;23.49;31.38
13235;BME280;6683;48.506;9.050;2023-03-18T14:41:02;97520.13;;;23.43;31.26
13235;BME280;6683;48.506;9.050;2023-03-18T14:44:23;97515.34;;;23.35;31.61
13235;BME280;6683;48.506;9.050;2023-03-18T14:47:40;97512.69;;;23.30;31.71
13235;BME280;6683;48.506;9.050;2023-03-18T14:50:46;97510.03;;;23.25;31.38
13235;BME280;6683;48.506;9.050;2023-03-18T14:53:52;97513.31;;;23.22;31.88
13235;BME280;6683;48.506;9.050;2023-03-18T14:57:02;97504.19;;;23.18;31.91
13235;BME280;6683;48.506;9.050;2023-03-18T15:00:14;97504.25;;;23.13;31.49
13235;BME280;6683;48.506;9.050;2023-03-18T15:03:21;97507.47;;;23.10;31.59
13235;BME280;6683;48.506;9.050;2023-03-18T15:06:26;97499.47;;;23.04;31.68
13235;BME280;6683;48.506;9.050;2023-03-18T15:09:31;97505.41;;;23.01;31.42
13235;BME280;6683;48.506;9.050;2023-03-18T15:12:35;97499.50;;;22.99;31.55
13235;BME280;6683;48.506;9.050;2023-03-18T15:15:39;97497.09;;;22.98;31.59
13235;BME280;6683;48.506;9.050;2023-03-18T15:18:43;97503.84;;;22.95;31.81
13235;BME280;6683;48.506;9.050;2023-03-18T15:21:46;97501.97;;;22.96;31.81
13235;BME280;6683;48.506;9.050;2023-03-18T15:24:48;97504.88;;;22.99;31.54
13235;BME280;6683;48.506;9.050;2023-03-18T15:27:53;97497.09;;;22.98;31.17
13235;BME280;6683;48.506;9.050;2023-03-18T15:30:58;97489.88;;;22.93;31.62
13235;BME280;6683;48.506;9.050;2023-03-18T15:34:10;97495.28;;;22.88;31.40
13235;BME280;6683;48.506;9.050;2023-03-18T15:37:36;97499.09;;;22.82;31.46
13235;BME280;6683;48.506;9.050;2023-03-18T15:40:51;97505.09;;;22.74;32.00
13235;BME280;6683;48.506;9.050;2023-03-18T15:43:54;97505.16;;;22.69;31.57
13235;BME280;6683;48.506;9.050;2023-03-18T15:47:11;97500.63;;;22.60;31.64
13235;BME280;6683;48.506;9.050;2023-03-18T15:50:25;97496.34;;;22.54;31.76
13235;BME280;6683;48.506;9.050;2023-03-18T15:53:37;97495.06;;;22.46;31.80
13235;BME280;6683;48.506;9.050;2023-03-18T15:56:45;97501.56;;;22.40;31.83
13235;BME280;6683;48.506;9.050;2023-03-18T15:59:48;97510.16;;;22.37;32.00
13235;BME280;6683;48.506;9.050;2023-03-18T16:02:52;97509.91;;;22.34;32.26
13235;BME280;6683;48.506;9.050;2023-03-18T16:05:55;97509.66;;;22.30;32.11
13235;BME280;6683;48.506;9.050;2023-03-18T16:08:58;97515.59;;;22.27;32.05
13235;BME280;6683;48.506;9.050;2023-03-18T16:12:05;97524.22;;;22.24;32.40
13235;BME280;6683;48.506;9.050;2023-03-18T16:15:15;97521.28;;;22.20;32.17
13235;BME280;6683;48.506;9.050;2023-03-18T16:18:23;97517.81;;;22.15;32.71
13235;BME280;6683;48.506;9.050;2023-03-18T16:21:25;97518.13;;;22.08;32.78
13235;BME280;6683;48.506;9.050;2023-03-18T16:24:28;97528.34;;;22.01;33.00
13235;BME280;6683;48.506;9.050;2023-03-18T16:27:36;97529.22;;;21.92;32.69
13235;BME280;6683;48.506;9.050;2023-03-18T16:30:39;97529.78;;;21.84;32.46
13235;BME280;6683;48.506;9.050;2023-03-18T16:33:43;97532.19;;;21.75;32.22
13235;BME280;6683;48.506;9.050;2023-03-18T16:36:47;97530.84;;;21.68;32.43
13235;BME280;6683;48.506;9.050;2023-03-18T16:39:51;97549.41;;;21.59;32.45
13235;BME280;6683;48.506;9.050;2023-03-18T16:42:54;97546.50;;;21.51;32.82
13235;BME280;6683;48.506;9.050;2023-03-18T16:45:59;97544.34;;;21.42;33.07